sensor_id;sensor_type;location;lat;lon;timestamp;P1;durP1;ratioP1;P2;durP2;ratioP2
65461;SDS011;53236;43.666;18.444;2023-08-21T00:01:20;52.25;;;17.38;;
65461;SDS011;53236;43.666;18.444;2023-08-21T00:03:46;29.98;;;16.58;;
65461;SDS011;53236;43.666;18.444;2023-08-21T00:06:12;25.23;;;16.40;;
65461;SDS011;53236;43.666;18.444;2023-08-21T00:08:38;74.80;;;18.90;;
65461;SDS011;53236;43.666;18.444;2023-08-21T00:11:03;24.27;;;16.25;;
65461;SDS011;53236;43.666;18.444;2023-08-21T00:13:29;25.85;;;16.17;;
65461;SDS011;53236;43.666;18.444;2023-08-21T00:15:55;36.35;;;16.67;;
65461;SDS011;53236;43.666;18.444;2023-08-21T00:18:21;22.73;;;16.33;;
65461;SDS011;53236;43.666;18.444;2023-08-21T00:20:47;39.95;;;16.73;;
65461;SDS011;53236;43.666;18.444;2023-08-21T00:23:13;22.03;;;14.97;;
65461;SDS011;53236;43.666;18.444;2023-08-21T00:25:38;21.70;;;15.35;;
65461;SDS011;53236;43.666;18.444;2023-08-21T00:28:04;28.58;;;15.48;;
65461;SDS011;53236;43.666;18.444;2023-08-21T00:30:31;27.20;;;15.88;;
65461;SDS011;53236;43.666;18.444;2023-08-21T00:32:57;23.83;;;14.77;;
65461;SDS011;53236;43.666;18.444;2023-08-21T00:35:23;24.50;;;14.90;;
65461;SDS011;53236;43.666;18.444;2023-08-21T00:37:49;35.93;;;15.77;;
65461;SDS011;53236;43.666;18.444;2023-08-21T00:40:15;21.60;;;14.50;;
65461;SDS011;53236;43.666;18.444;2023-08-21T00:42:41;23.55;;;14.60;;
65461;SDS011;53236;43.666;18.444;2023-08-21T00:45:06;24.83;;;15.98;;
65461;SDS011;53236;43.666;18.444;2023-08-21T00:47:36;21.30;;;14.63;;
65461;SDS011;53236;43.666;18.444;2023-08-21T00:50:02;30.95;;;16.83;;
65461;SDS011;53236;43.666;18.444;2023-08-21T00:52:31;27.05;;;16.75;;
65461;SDS011;53236;43.666;18.444;2023-08-21T00:54:57;23.60;;;17.23;;
65461;SDS011;53236;43.666;18.444;2023-08-21T00:57:23;19.92;;;16.63;;
65461;SDS011;53236;43.666;18.444;2023-08-21T00:59:48;25.92;;;16.58;;
65461;SDS011;53236;43.666;18.444;2023-08-21T01:02:14;28.40;;;17.15;;
65461;SDS011;53236;43.666;18.444;2023-08-21T01:04:40;26.40;;;17.67;;
65461;SDS011;53236;43.666;18.444;2023-08-21T01:07:06;27.20;;;16.73;;
65461;SDS011;53236;43.666;18.444;2023-08-21T01:10:22;25.35;;;17.50;;
65461;SDS011;53236;43.666;18.444;2023-08-21T01:12:35;26.60;;;16.33;;
65461;SDS011;53236;43.666;18.444;2023-08-21T01:15:10;32.78;;;17.08;;
65461;SDS011;53236;43.666;18.444;2023-08-21T01:17:36;19.45;;;15.88;;
65461;SDS011;53236;43.666;18.444;2023-08-21T01:20:03;47.33;;;15.30;;
65461;SDS011;53236;43.666;18.444;2023-08-21T01:22:41;105.20;;;16.90;;
65461;SDS011;53236;43.666;18.444;2023-08-21T01:25:11;26.00;;;15.25;;
65461;SDS011;53236;43.666;18.444;2023-08-21T01:27:40;82.60;;;17.08;;
65461;SDS011;53236;43.666;18.444;2023-08-21T01:30:08;52.63;;;15.85;;
65461;SDS011;53236;43.666;18.444;2023-08-21T01:32:37;17.60;;;15.05;;
65461;SDS011;53236;43.666;18.444;2023-08-21T01:35:04;18.92;;;14.63;;
65461;SDS011;53236;43.666;18.444;2023-08-21T01:37:32;29.58;;;14.95;;
65461;SDS011;53236;43.666;18.444;2023-08-21T01:39:58;32.70;;;15.68;;
65461;SDS011;53236;43.666;18.444;2023-08-21T01:42:24;20.42;;;14.88;;
65461;SDS011;53236;43.666;18.444;2023-08-21T01:44:50;18.45;;;14.20;;
65461;SDS011;53236;43.666;18.444;2023-08-21T01:47:15;24.77;;;14.15;;
65461;SDS011;53236;43.666;18.444;2023-08-21T01:49:41;28.60;;;13.68;;
65461;SDS011;53236;43.666;18.444;2023-08-21T01:52:07;18.85;;;12.32;;
65461;SDS011;53236;43.666;18.444;2023-08-21T01:54:32;15.82;;;13.25;;
65461;SDS011;53236;43.666;18.444;2023-08-21T01:56:58;18.00;;;13.38;;
65461;SDS011;53236;43.666;18.444;2023-08-21T01:59:24;15.30;;;12.98;;
65461;SDS011;53236;43.666;18.444;2023-08-21T02:01:50;15.83;;;13.40;;
65461;SDS011;53236;43.666;18.444;2023-08-21T02:04:16;20.92;;;13.07;;
65461;SDS011;53236;43.666;18.444;2023-08-21T02:06:41;35.95;;;13.20;;
65461;SDS011;53236;43.666;18.444;2023-08-21T02:09:09;22.70;;;14.20;;
65461;SDS011;53236;43.666;18.444;2023-08-21T02:11:35;21.10;;;14.03;;
65461;SDS011;53236;43.666;18.444;2023-08-21T02:14:01;21.90;;;14.03;;
65461;SDS011;53236;43.666;18.444;2023-08-21T02:16:27;23.70;;;14.40;;
65461;SDS011;53236;43.666;18.444;2023-08-21T02:18:53;25.75;;;14.07;;
65461;SDS011;53236;43.666;18.444;2023-08-21T02:21:20;20.85;;;14.13;;
65461;SDS011;53236;43.666;18.444;2023-08-21T02:23:46;14.95;;;12.27;;
65461;SDS011;53236;43.666;18.444;2023-08-21T02:26:12;19.03;;;12.97;;
65461;SDS011;53236;43.666;18.444;2023-08-21T02:28:37;15.97;;;12.77;;
65461;SDS011;53236;43.666;18.444;2023-08-21T02:31:03;17.83;;;13.00;;
65461;SDS011;53236;43.666;18.444;2023-08-21T02:33:30;16.63;;;12.87;;
65461;SDS011;53236;43.666;18.444;2023-08-21T02:35:56;17.03;;;12.43;;
65461;SDS011;53236;43.666;18.444;2023-08-21T02:38:21;14.52;;;12.75;;
65461;SDS011;53236;43.666;18.444;2023-08-21T02:40:47;17.40;;;13.17;;
65461;SDS011;53236;43.666;18.444;2023-08-21T02:43:14;21.93;;;13.93;;
65461;SDS011;53236;43.666;18.444;2023-08-21T02:45:41;24.13;;;13.90;;
65461;SDS011;53236;43.666;18.444;2023-08-21T02:48:07;16.83;;;13.60;;
65461;SDS011;53236;43.666;18.444;2023-08-21T02:50:33;17.25;;;13.50;;
65461;SDS011;53236;43.666;18.444;2023-08-21T02:52:59;23.75;;;13.98;;
65461;SDS011;53236;43.666;18.444;2023-08-21T02:55:24;22.40;;;13.70;;
65461;SDS011;53236;43.666;18.444;2023-08-21T02:57:50;60.30;;;16.60;;
65461;SDS011;53236;43.666;18.444;2023-08-21T03:00:16;17.83;;;13.63;;
65461;SDS011;53236;43.666;18.444;2023-08-21T03:02:42;19.47;;;13.60;;
65461;SDS011;53236;43.666;18.444;2023-08-21T03:05:07;42.78;;;14.63;;
65461;SDS011;53236;43.666;18.444;2023-08-21T03:07:34;14.90;;;13.30;;
65461;SDS011;53236;43.666;18.444;2023-08-21T03:10:00;16.10;;;12.43;;
65461;SDS011;53236;43.666;18.444;2023-08-21T03:12:27;15.37;;;12.97;;
65461;SDS011;53236;43.666;18.444;2023-08-21T03:14:53;16.47;;;12.67;;
65461;SDS011;53236;43.666;18.444;2023-08-21T03:17:19;25.80;;;13.77;;
65461;SDS011;53236;43.666;18.444;2023-08-21T03:19:44;33.77;;;14.23;;
65461;SDS011;53236;43.666;18.444;2023-08-21T03:22:10;30.70;;;14.80;;
65461;SDS011;53236;43.666;18.444;2023-08-21T03:24:36;14.43;;;12.93;;
65461;SDS011;53236;43.666;18.444;2023-08-21T03:27:02;25.53;;;14.43;;
65461;SDS011;53236;43.666;18.444;2023-08-21T03:29:28;70.47;;;15.33;;
65461;SDS011;53236;43.666;18.444;2023-08-21T03:31:54;33.13;;;14.50;;
65461;SDS011;53236;43.666;18.444;2023-08-21T03:34:21;16.73;;;13.27;;
65461;SDS011;53236;43.666;18.444;2023-08-21T03:36:46;56.73;;;13.53;;
65461;SDS011;53236;43.666;18.444;2023-08-21T03:39:12;16.87;;;13.03;;
65461;SDS011;53236;43.666;18.444;2023-08-21T03:41:38;55.17;;;15.97;;
65461;SDS011;53236;43.666;18.444;2023-08-21T03:44:04;20.07;;;13.17;;
65461;SDS011;53236;43.666;18.444;2023-08-21T03:46:29;53.08;;;13.95;;
65461;SDS011;53236;43.666;18.444;2023-08-21T03:48:55;17.60;;;13.20;;
65461;SDS011;53236;43.666;18.444;2023-08-21T03:51:21;25.07;;;12.97;;
65461;SDS011;53236;43.666;18.444;2023-08-21T03:53:47;22.03;;;13.70;;
65461;SDS011;53236;43.666;18.444;2023-08-21T03:56:14;22.37;;;14.10;;
65461;SDS011;53236;43.666;18.444;2023-08-21T03:58:40;38.70;;;14.10;;
65461;SDS011;53236;43.666;18.444;2023-08-21T04:01:05;30.53;;;15.20;;
65461;SDS011;53236;43.666;18.444;2023-08-21T04:03:31;24.17;;;14.47;;
65461;SDS011;53236;43.666;18.444;2023-08-21T04:05:58;18.37;;;13.33;;
65461;SDS011;53236;43.666;18.444;2023-08-21T04:08:24;16.43;;;13.33;;
65461;SDS011;53236;43.666;18.444;2023-08-21T04:10:50;18.63;;;12.77;;
65461;SDS011;53236;43.666;18.444;2023-08-21T04:13:18;20.90;;;13.30;;
65461;SDS011;53236;43.666;18.444;2023-08-21T04:15:44;19.07;;;13.33;;
65461;SDS011;53236;43.666;18.444;2023-08-21T04:18:11;22.63;;;12.67;;
65461;SDS011;53236;43.666;18.444;2023-08-21T04:20:36;18.20;;;12.10;;
65461;SDS011;53236;43.666;18.444;2023-08-21T04:23:02;38.67;;;14.40;;
65461;SDS011;53236;43.666;18.444;2023-08-21T04:25:28;17.57;;;13.50;;
65461;SDS011;53236;43.666;18.444;2023-08-21T04:27:54;17.17;;;12.83;;
65461;SDS011;53236;43.666;18.444;2023-08-21T04:30:20;19.00;;;13.03;;
65461;SDS011;53236;43.666;18.444;2023-08-21T04:32:46;49.23;;;13.93;;
65461;SDS011;53236;43.666;18.444;2023-08-21T04:35:12;29.37;;;13.30;;
65461;SDS011;53236;43.666;18.444;2023-08-21T04:37:43;19.47;;;11.83;;
65461;SDS011;53236;43.666;18.444;2023-08-21T04:40:11;21.57;;;11.93;;
65461;SDS011;53236;43.666;18.444;2023-08-21T04:42:37;21.63;;;13.73;;
65461;SDS011;53236;43.666;18.444;2023-08-21T04:45:03;17.42;;;12.45;;
65461;SDS011;53236;43.666;18.444;2023-08-21T04:47:30;24.97;;;12.30;;
65461;SDS011;53236;43.666;18.444;2023-08-21T04:49:56;29.77;;;12.87;;
65461;SDS011;53236;43.666;18.444;2023-08-21T04:52:22;27.27;;;12.97;;
65461;SDS011;53236;43.666;18.444;2023-08-21T04:54:49;73.53;;;14.00;;
65461;SDS011;53236;43.666;18.444;2023-08-21T04:57:15;21.57;;;11.97;;
65461;SDS011;53236;43.666;18.444;2023-08-21T04:59:42;24.20;;;10.93;;
65461;SDS011;53236;43.666;18.444;2023-08-21T05:02:08;74.23;;;13.77;;
65461;SDS011;53236;43.666;18.444;2023-08-21T05:04:36;32.88;;;12.57;;
65461;SDS011;53236;43.666;18.444;2023-08-21T05:07:02;17.40;;;11.60;;
65461;SDS011;53236;43.666;18.444;2023-08-21T05:09:29;18.10;;;11.93;;
65461;SDS011;53236;43.666;18.444;2023-08-21T05:11:55;30.67;;;11.37;;
65461;SDS011;53236;43.666;18.444;2023-08-21T05:14:22;21.23;;;10.40;;
65461;SDS011;53236;43.666;18.444;2023-08-21T05:16:48;12.02;;;9.68;;
65461;SDS011;53236;43.666;18.444;2023-08-21T05:19:15;19.85;;;9.57;;
65461;SDS011;53236;43.666;18.444;2023-08-21T05:21:41;15.30;;;9.77;;
65461;SDS011;53236;43.666;18.444;2023-08-21T05:24:07;22.25;;;10.25;;
65461;SDS011;53236;43.666;18.444;2023-08-21T05:26:35;26.70;;;9.82;;
65461;SDS011;53236;43.666;18.444;2023-08-21T05:29:01;29.17;;;9.82;;
65461;SDS011;53236;43.666;18.444;2023-08-21T05:31:27;12.98;;;9.27;;
65461;SDS011;53236;43.666;18.444;2023-08-21T05:33:53;32.30;;;9.90;;
65461;SDS011;53236;43.666;18.444;2023-08-21T05:36:18;15.38;;;8.18;;
65461;SDS011;53236;43.666;18.444;2023-08-21T05:38:44;19.67;;;8.60;;
65461;SDS011;53236;43.666;18.444;2023-08-21T05:41:10;9.90;;;8.43;;
65461;SDS011;53236;43.666;18.444;2023-08-21T05:43:36;11.55;;;8.10;;
65461;SDS011;53236;43.666;18.444;2023-08-21T05:46:05;27.20;;;8.88;;
65461;SDS011;53236;43.666;18.444;2023-08-21T05:48:31;8.82;;;7.57;;
65461;SDS011;53236;43.666;18.444;2023-08-21T05:50:56;10.05;;;7.70;;
65461;SDS011;53236;43.666;18.444;2023-08-21T05:53:22;7.95;;;7.15;;
65461;SDS011;53236;43.666;18.444;2023-08-21T05:55:48;9.63;;;7.45;;
65461;SDS011;53236;43.666;18.444;2023-08-21T05:58:14;13.70;;;8.40;;
65461;SDS011;53236;43.666;18.444;2023-08-21T06:00:40;8.50;;;7.47;;
65461;SDS011;53236;43.666;18.444;2023-08-21T06:03:06;8.65;;;7.65;;
65461;SDS011;53236;43.666;18.444;2023-08-21T06:05:31;10.70;;;8.00;;
65461;SDS011;53236;43.666;18.444;2023-08-21T06:07:57;9.57;;;6.65;;
65461;SDS011;53236;43.666;18.444;2023-08-21T06:10:23;11.35;;;6.40;;
65461;SDS011;53236;43.666;18.444;2023-08-21T06:12:48;7.43;;;6.47;;
65461;SDS011;53236;43.666;18.444;2023-08-21T06:15:16;8.13;;;6.28;;
65461;SDS011;53236;43.666;18.444;2023-08-21T06:17:42;8.50;;;5.30;;
65461;SDS011;53236;43.666;18.444;2023-08-21T06:20:07;7.30;;;5.57;;
65461;SDS011;53236;43.666;18.444;2023-08-21T06:22:36;6.00;;;4.45;;
65461;SDS011;53236;43.666;18.444;2023-08-21T06:25:02;5.75;;;4.75;;
65461;SDS011;53236;43.666;18.444;2023-08-21T06:27:28;5.32;;;4.68;;
65461;SDS011;53236;43.666;18.444;2023-08-21T06:29:54;5.85;;;3.90;;
65461;SDS011;53236;43.666;18.444;2023-08-21T06:32:20;9.90;;;3.75;;
65461;SDS011;53236;43.666;18.444;2023-08-21T06:34:46;6.00;;;4.28;;
65461;SDS011;53236;43.666;18.444;2023-08-21T06:37:11;4.90;;;4.00;;
65461;SDS011;53236;43.666;18.444;2023-08-21T06:39:38;4.90;;;3.72;;
65461;SDS011;53236;43.666;18.444;2023-08-21T06:42:04;6.55;;;4.13;;
65461;SDS011;53236;43.666;18.444;2023-08-21T06:44:30;4.80;;;4.32;;
65461;SDS011;53236;43.666;18.444;2023-08-21T06:46:55;6.10;;;4.25;;
65461;SDS011;53236;43.666;18.444;2023-08-21T06:49:21;11.07;;;4.78;;
65461;SDS011;53236;43.666;18.444;2023-08-21T06:51:47;5.18;;;4.32;;
65461;SDS011;53236;43.666;18.444;2023-08-21T06:54:13;5.38;;;4.10;;
65461;SDS011;53236;43.666;18.444;2023-08-21T06:56:39;6.47;;;3.33;;
65461;SDS011;53236;43.666;18.444;2023-08-21T06:59:05;7.88;;;3.75;;
65461;SDS011;53236;43.666;18.444;2023-08-21T07:01:30;4.32;;;3.25;;
65461;SDS011;53236;43.666;18.444;2023-08-21T07:03:56;4.68;;;3.75;;
65461;SDS011;53236;43.666;18.444;2023-08-21T07:06:22;6.38;;;3.22;;
65461;SDS011;53236;43.666;18.444;2023-08-21T07:08:47;4.40;;;3.38;;
65461;SDS011;53236;43.666;18.444;2023-08-21T07:11:13;4.05;;;3.10;;
65461;SDS011;53236;43.666;18.444;2023-08-21T07:13:39;5.00;;;4.30;;
65461;SDS011;53236;43.666;18.444;2023-08-21T07:16:05;4.90;;;4.40;;
65461;SDS011;53236;43.666;18.444;2023-08-21T07:18:34;6.88;;;4.43;;
65461;SDS011;53236;43.666;18.444;2023-08-21T07:21:01;7.13;;;5.03;;
65461;SDS011;53236;43.666;18.444;2023-08-21T07:23:28;8.63;;;5.70;;
65461;SDS011;53236;43.666;18.444;2023-08-21T07:25:54;6.65;;;4.30;;
65461;SDS011;53236;43.666;18.444;2023-08-21T07:28:20;7.95;;;4.40;;
65461;SDS011;53236;43.666;18.444;2023-08-21T07:30:45;5.88;;;4.43;;
65461;SDS011;53236;43.666;18.444;2023-08-21T07:33:11;7.82;;;4.93;;
65461;SDS011;53236;43.666;18.444;2023-08-21T07:35:37;8.40;;;5.03;;
65461;SDS011;53236;43.666;18.444;2023-08-21T07:38:03;6.95;;;4.80;;
65461;SDS011;53236;43.666;18.444;2023-08-21T07:40:29;8.48;;;4.80;;
65461;SDS011;53236;43.666;18.444;2023-08-21T07:42:54;5.78;;;4.90;;
65461;SDS011;53236;43.666;18.444;2023-08-21T07:45:20;6.63;;;4.63;;
65461;SDS011;53236;43.666;18.444;2023-08-21T07:47:46;6.60;;;4.75;;
65461;SDS011;53236;43.666;18.444;2023-08-21T07:50:11;8.70;;;5.03;;
65461;SDS011;53236;43.666;18.444;2023-08-21T07:52:39;6.55;;;5.03;;
65461;SDS011;53236;43.666;18.444;2023-08-21T07:55:05;8.10;;;5.22;;
65461;SDS011;53236;43.666;18.444;2023-08-21T07:57:31;7.28;;;4.85;;
65461;SDS011;53236;43.666;18.444;2023-08-21T07:59:57;9.38;;;4.70;;
65461;SDS011;53236;43.666;18.444;2023-08-21T08:02:23;12.02;;;5.60;;
65461;SDS011;53236;43.666;18.444;2023-08-21T08:04:49;11.13;;;5.22;;
65461;SDS011;53236;43.666;18.444;2023-08-21T08:07:15;6.53;;;4.88;;
65461;SDS011;53236;43.666;18.444;2023-08-21T08:09:41;11.95;;;5.00;;
65461;SDS011;53236;43.666;18.444;2023-08-21T08:12:06;7.28;;;5.00;;
65461;SDS011;53236;43.666;18.444;2023-08-21T08:14:32;7.28;;;4.85;;
65461;SDS011;53236;43.666;18.444;2023-08-21T08:16:58;10.13;;;5.82;;
65461;SDS011;53236;43.666;18.444;2023-08-21T08:19:24;8.85;;;5.13;;
65461;SDS011;53236;43.666;18.444;2023-08-21T08:21:49;7.22;;;5.40;;
65461;SDS011;53236;43.666;18.444;2023-08-21T08:24:15;8.30;;;5.30;;
65461;SDS011;53236;43.666;18.444;2023-08-21T08:26:41;10.05;;;5.15;;
65461;SDS011;53236;43.666;18.444;2023-08-21T08:29:08;6.10;;;5.10;;
65461;SDS011;53236;43.666;18.444;2023-08-21T08:31:34;7.15;;;5.75;;
65461;SDS011;53236;43.666;18.444;2023-08-21T08:34:00;7.00;;;5.40;;
65461;SDS011;53236;43.666;18.444;2023-08-21T08:36:26;9.25;;;5.45;;
65461;SDS011;53236;43.666;18.444;2023-08-21T08:38:51;8.45;;;5.88;;
65461;SDS011;53236;43.666;18.444;2023-08-21T08:44:17;7.20;;;5.75;;
65461;SDS011;53236;43.666;18.444;2023-08-21T08:46:44;7.13;;;5.43;;
65461;SDS011;53236;43.666;18.444;2023-08-21T08:49:09;6.55;;;5.88;;
65461;SDS011;53236;43.666;18.444;2023-08-21T08:51:36;6.43;;;5.72;;
65461;SDS011;53236;43.666;18.444;2023-08-21T08:54:04;8.52;;;6.10;;
65461;SDS011;53236;43.666;18.444;2023-08-21T08:56:31;8.82;;;6.43;;
65461;SDS011;53236;43.666;18.444;2023-08-21T08:58:57;8.02;;;5.93;;
65461;SDS011;53236;43.666;18.444;2023-08-21T09:01:23;7.43;;;5.80;;
65461;SDS011;53236;43.666;18.444;2023-08-21T09:03:48;6.53;;;5.90;;
65461;SDS011;53236;43.666;18.444;2023-08-21T09:06:20;9.25;;;6.20;;
65461;SDS011;53236;43.666;18.444;2023-08-21T09:08:55;7.18;;;6.20;;
65461;SDS011;53236;43.666;18.444;2023-08-21T09:11:22;9.38;;;7.32;;
65461;SDS011;53236;43.666;18.444;2023-08-21T09:13:49;7.82;;;7.07;;
65461;SDS011;53236;43.666;18.444;2023-08-21T09:16:16;10.02;;;7.18;;
65461;SDS011;53236;43.666;18.444;2023-08-21T09:18:46;13.25;;;8.05;;
65461;SDS011;53236;43.666;18.444;2023-08-21T09:21:17;9.40;;;8.40;;
65461;SDS011;53236;43.666;18.444;2023-08-21T09:23:43;9.82;;;8.82;;
65461;SDS011;53236;43.666;18.444;2023-08-21T09:26:09;12.23;;;8.73;;
65461;SDS011;53236;43.666;18.444;2023-08-21T09:28:35;15.45;;;9.05;;
65461;SDS011;53236;43.666;18.444;2023-08-21T09:31:02;12.98;;;8.85;;
65461;SDS011;53236;43.666;18.444;2023-08-21T09:33:28;9.60;;;7.88;;
65461;SDS011;53236;43.666;18.444;2023-08-21T09:35:54;10.70;;;8.52;;
65461;SDS011;53236;43.666;18.444;2023-08-21T09:38:21;11.10;;;8.73;;
65461;SDS011;53236;43.666;18.444;2023-08-21T09:40:54;11.93;;;8.90;;
65461;SDS011;53236;43.666;18.444;2023-08-21T09:43:21;12.57;;;9.05;;
65461;SDS011;53236;43.666;18.444;2023-08-21T09:45:48;11.88;;;9.15;;
65461;SDS011;53236;43.666;18.444;2023-08-21T09:48:17;12.95;;;8.52;;
65461;SDS011;53236;43.666;18.444;2023-08-21T09:50:44;12.05;;;9.20;;
65461;SDS011;53236;43.666;18.444;2023-08-21T09:53:11;9.98;;;8.00;;
65461;SDS011;53236;43.666;18.444;2023-08-21T09:55:39;12.77;;;8.35;;
65461;SDS011;53236;43.666;18.444;2023-08-21T09:58:07;13.80;;;8.43;;
65461;SDS011;53236;43.666;18.444;2023-08-21T10:00:37;12.55;;;9.38;;
65461;SDS011;53236;43.666;18.444;2023-08-21T10:03:06;10.63;;;8.70;;
65461;SDS011;53236;43.666;18.444;2023-08-21T10:05:36;13.80;;;9.10;;
65461;SDS011;53236;43.666;18.444;2023-08-21T10:08:03;13.90;;;9.48;;
65461;SDS011;53236;43.666;18.444;2023-08-21T10:10:38;10.55;;;8.60;;
65461;SDS011;53236;43.666;18.444;2023-08-21T10:15:31;16.17;;;9.35;;
65461;SDS011;53236;43.666;18.444;2023-08-21T10:18:06;13.85;;;10.00;;
65461;SDS011;53236;43.666;18.444;2023-08-21T10:20:42;12.48;;;10.32;;
65461;SDS011;53236;43.666;18.444;2023-08-21T10:23:08;13.43;;;10.98;;
65461;SDS011;53236;43.666;18.444;2023-08-21T10:25:34;12.10;;;10.00;;
65461;SDS011;53236;43.666;18.444;2023-08-21T10:28:06;12.50;;;11.20;;
65461;SDS011;53236;43.666;18.444;2023-08-21T10:30:32;13.15;;;10.10;;
65461;SDS011;53236;43.666;18.444;2023-08-21T10:32:58;16.88;;;11.63;;
65461;SDS011;53236;43.666;18.444;2023-08-21T10:35:28;12.57;;;10.75;;
65461;SDS011;53236;43.666;18.444;2023-08-21T10:41:03;12.00;;;10.80;;
65461;SDS011;53236;43.666;18.444;2023-08-21T10:46:05;12.02;;;10.82;;
65461;SDS011;53236;43.666;18.444;2023-08-21T10:48:31;12.73;;;11.43;;
65461;SDS011;53236;43.666;18.444;2023-08-21T10:50:58;12.63;;;11.30;;
65461;SDS011;53236;43.666;18.444;2023-08-21T10:53:30;14.52;;;12.38;;
65461;SDS011;53236;43.666;18.444;2023-08-21T10:55:57;14.93;;;11.18;;
65461;SDS011;53236;43.666;18.444;2023-08-21T10:58:25;14.38;;;11.25;;
65461;SDS011;53236;43.666;18.444;2023-08-21T11:00:57;17.60;;;11.00;;
65461;SDS011;53236;43.666;18.444;2023-08-21T11:03:24;13.18;;;10.52;;
65461;SDS011;53236;43.666;18.444;2023-08-21T11:06:10;11.75;;;10.55;;
65461;SDS011;53236;43.666;18.444;2023-08-21T11:08:36;13.93;;;10.18;;
65461;SDS011;53236;43.666;18.444;2023-08-21T11:11:02;14.13;;;10.32;;
65461;SDS011;53236;43.666;18.444;2023-08-21T11:13:29;14.52;;;10.02;;
65461;SDS011;53236;43.666;18.444;2023-08-21T11:16:03;11.13;;;10.02;;
65461;SDS011;53236;43.666;18.444;2023-08-21T11:21:10;10.65;;;9.55;;
65461;SDS011;53236;43.666;18.444;2023-08-21T11:23:37;11.90;;;10.05;;
65461;SDS011;53236;43.666;18.444;2023-08-21T11:26:04;12.73;;;9.85;;
65461;SDS011;53236;43.666;18.444;2023-08-21T11:28:31;12.13;;;9.88;;
65461;SDS011;53236;43.666;18.444;2023-08-21T11:30:57;14.13;;;10.52;;
65461;SDS011;53236;43.666;18.444;2023-08-21T11:33:25;14.32;;;9.73;;
65461;SDS011;53236;43.666;18.444;2023-08-21T11:35:52;15.50;;;10.57;;
65461;SDS011;53236;43.666;18.444;2023-08-21T11:38:23;13.23;;;9.68;;
65461;SDS011;53236;43.666;18.444;2023-08-21T11:40:51;15.23;;;10.10;;
65461;SDS011;53236;43.666;18.444;2023-08-21T11:43:17;14.35;;;9.55;;
65461;SDS011;53236;43.666;18.444;2023-08-21T11:45:48;9.95;;;8.95;;
65461;SDS011;53236;43.666;18.444;2023-08-21T11:48:14;11.52;;;9.25;;
65461;SDS011;53236;43.666;18.444;2023-08-21T11:50:40;11.65;;;9.95;;
65461;SDS011;53236;43.666;18.444;2023-08-21T11:53:05;13.95;;;9.90;;
65461;SDS011;53236;43.666;18.444;2023-08-21T11:55:31;11.70;;;9.60;;
65461;SDS011;53236;43.666;18.444;2023-08-21T11:57:57;10.32;;;9.32;;
65461;SDS011;53236;43.666;18.444;2023-08-21T12:00:27;10.10;;;9.00;;
65461;SDS011;53236;43.666;18.444;2023-08-21T12:03:00;11.02;;;9.65;;
65461;SDS011;53236;43.666;18.444;2023-08-21T12:05:28;12.18;;;10.45;;
65461;SDS011;53236;43.666;18.444;2023-08-21T12:07:55;13.50;;;10.32;;
65461;SDS011;53236;43.666;18.444;2023-08-21T12:10:24;11.73;;;10.50;;
65461;SDS011;53236;43.666;18.444;2023-08-21T12:12:51;11.32;;;9.85;;
65461;SDS011;53236;43.666;18.444;2023-08-21T12:15:17;11.98;;;10.57;;
65461;SDS011;53236;43.666;18.444;2023-08-21T12:17:43;11.77;;;10.30;;
65461;SDS011;53236;43.666;18.444;2023-08-21T12:20:08;14.02;;;11.13;;
65461;SDS011;53236;43.666;18.444;2023-08-21T12:22:37;17.05;;;13.63;;
65461;SDS011;53236;43.666;18.444;2023-08-21T12:25:05;14.23;;;12.80;;
65461;SDS011;53236;43.666;18.444;2023-08-21T12:27:32;13.45;;;12.07;;
65461;SDS011;53236;43.666;18.444;2023-08-21T12:29:58;18.20;;;11.98;;
65461;SDS011;53236;43.666;18.444;2023-08-21T12:32:23;14.48;;;13.07;;
65461;SDS011;53236;43.666;18.444;2023-08-21T12:34:50;15.13;;;12.25;;
65461;SDS011;53236;43.666;18.444;2023-08-21T12:37:17;13.93;;;12.63;;
65461;SDS011;53236;43.666;18.444;2023-08-21T12:39:43;13.82;;;12.05;;
65461;SDS011;53236;43.666;18.444;2023-08-21T12:42:09;15.63;;;12.05;;
65461;SDS011;53236;43.666;18.444;2023-08-21T12:44:34;13.90;;;12.50;;
65461;SDS011;53236;43.666;18.444;2023-08-21T12:47:00;13.48;;;11.88;;
65461;SDS011;53236;43.666;18.444;2023-08-21T12:49:26;14.30;;;11.38;;
65461;SDS011;53236;43.666;18.444;2023-08-21T12:51:52;15.18;;;11.40;;
65461;SDS011;53236;43.666;18.444;2023-08-21T12:54:18;16.70;;;12.90;;
65461;SDS011;53236;43.666;18.444;2023-08-21T12:56:44;17.00;;;13.23;;
65461;SDS011;53236;43.666;18.444;2023-08-21T12:59:10;17.85;;;14.20;;
65461;SDS011;53236;43.666;18.444;2023-08-21T13:01:35;18.90;;;14.10;;
65461;SDS011;53236;43.666;18.444;2023-08-21T13:04:02;16.23;;;13.63;;
65461;SDS011;53236;43.666;18.444;2023-08-21T13:06:28;16.67;;;14.30;;
65461;SDS011;53236;43.666;18.444;2023-08-21T13:08:54;16.35;;;14.13;;
65461;SDS011;53236;43.666;18.444;2023-08-21T13:11:20;17.88;;;14.23;;
65461;SDS011;53236;43.666;18.444;2023-08-21T13:13:45;15.63;;;14.02;;
65461;SDS011;53236;43.666;18.444;2023-08-21T13:16:11;17.92;;;13.43;;
65461;SDS011;53236;43.666;18.444;2023-08-21T13:18:37;18.92;;;13.52;;
65461;SDS011;53236;43.666;18.444;2023-08-21T13:21:02;16.77;;;13.50;;
65461;SDS011;53236;43.666;18.444;2023-08-21T13:23:29;14.73;;;13.23;;
65461;SDS011;53236;43.666;18.444;2023-08-21T13:25:56;15.45;;;13.32;;
65461;SDS011;53236;43.666;18.444;2023-08-21T13:28:23;16.23;;;13.48;;
65461;SDS011;53236;43.666;18.444;2023-08-21T13:30:49;17.05;;;12.27;;
65461;SDS011;53236;43.666;18.444;2023-08-21T13:33:15;14.50;;;12.95;;
65461;SDS011;53236;43.666;18.444;2023-08-21T13:35:43;18.40;;;13.82;;
65461;SDS011;53236;43.666;18.444;2023-08-21T13:38:12;20.88;;;15.10;;
65461;SDS011;53236;43.666;18.444;2023-08-21T13:40:38;17.73;;;13.95;;
65461;SDS011;53236;43.666;18.444;2023-08-21T13:43:06;18.50;;;14.43;;
65461;SDS011;53236;43.666;18.444;2023-08-21T13:45:32;16.90;;;14.27;;
65461;SDS011;53236;43.666;18.444;2023-08-21T13:47:58;21.00;;;15.32;;
65461;SDS011;53236;43.666;18.444;2023-08-21T13:50:24;17.00;;;15.27;;
65461;SDS011;53236;43.666;18.444;2023-08-21T13:52:50;17.63;;;15.13;;
65461;SDS011;53236;43.666;18.444;2023-08-21T13:55:16;18.85;;;14.50;;
65461;SDS011;53236;43.666;18.444;2023-08-21T13:57:41;18.25;;;15.07;;
65461;SDS011;53236;43.666;18.444;2023-08-21T14:00:09;17.73;;;14.80;;
65461;SDS011;53236;43.666;18.444;2023-08-21T14:02:39;17.25;;;14.88;;
65461;SDS011;53236;43.666;18.444;2023-08-21T14:05:06;18.08;;;15.80;;
65461;SDS011;53236;43.666;18.444;2023-08-21T14:07:33;16.75;;;15.07;;
65461;SDS011;53236;43.666;18.444;2023-08-21T14:09:59;18.10;;;13.98;;
65461;SDS011;53236;43.666;18.444;2023-08-21T14:12:28;16.85;;;15.05;;
65461;SDS011;53236;43.666;18.444;2023-08-21T14:14:55;20.30;;;14.38;;
65461;SDS011;53236;43.666;18.444;2023-08-21T14:17:21;17.65;;;15.25;;
65461;SDS011;53236;43.666;18.444;2023-08-21T14:19:46;16.77;;;14.23;;
65461;SDS011;53236;43.666;18.444;2023-08-21T14:22:12;17.48;;;14.45;;
65461;SDS011;53236;43.666;18.444;2023-08-21T14:24:38;16.40;;;13.60;;
65461;SDS011;53236;43.666;18.444;2023-08-21T14:27:03;18.33;;;14.32;;